MSC Clorinda — 3FDW7 — position and weather

sailwx.info

Track history (hours):
 
Tides and Currents Weather Stations Pressure Air Temp Water Temp Dewpoint Dewpoint Depression Visibility Wind Speed Wind Dir Waves Ship Positions

MSC Clorinda

Last reported at 2014-Nov-23 19:16 UTC. Time now 2014-Nov-24 08:23 UTC.
Position N 35°56' E 120°50'.

Length 366 m; draft 11.8 m.

Type: Ship (hazmat cat A). MMSI: 373233000.

Date/timePositionNaut miles runAvg speedWind from/ knotsBaromVisibWave heightAir tempDewpointWater temp
2014-Nov-23 19:16N 35°56' E 120°50'1318.7
2014-Nov-23 18:33N 35°58' E 120°34'1413.8
2014-Nov-23 17:33N 36°02' E 120°18'4 0.5
2014-Nov-23 08:18N 36°00' E 120°12'0 0.0
2014-Nov-23 06:06N 36°00' E 120°12'0 0.0
2014-Nov-23 01:12N 36°00' E 120°12'0 0.0
2014-Nov-22 23:12N 36°00' E 120°12'1 1.0
2014-Nov-22 22:33N 36°01' E 120°13'10 9.9
2014-Nov-22 21:33N 36°01' E 120°25'1212.3
2014-Nov-22 20:33N 35°58' E 120°40'  
2014-Nov-18 18:31N 37°60' E 122°29'5012.0
2014-Nov-18 14:21N 38°20' E 121°31'16312.3
2014-Nov-18 01:07N 38°54' E 118°07'712.1
2014-Nov-18 00:32N 38°57' E 117°58'9 9.7
2014-Nov-17 23:33N 39°00' E 117°47'0 0.3
2014-Nov-17 22:29N 39°00' E 117°47'0 0.0
2014-Nov-17 21:29N 39°00' E 117°47'0 0.0
2014-Nov-17 20:29N 39°00' E 117°47'0 0.0
2014-Nov-17 19:29N 39°00' E 117°47'0 0.0
2014-Nov-17 18:29N 39°00' E 117°47'0 0.0
2014-Nov-17 17:29N 39°00' E 117°47'0 0.0
2014-Nov-17 16:29N 39°00' E 117°47'0 0.0
2014-Nov-17 15:29N 39°00' E 117°47'0 0.0
2014-Nov-17 14:29N 39°00' E 117°47'0 0.0
2014-Nov-17 13:29N 39°00' E 117°47'0 0.0
2014-Nov-17 12:29N 39°00' E 117°47'0 0.0
2014-Nov-17 11:29N 39°00' E 117°47'0 0.0
2014-Nov-17 10:29N 39°00' E 117°47'0 0.0
2014-Nov-17 09:29N 39°00' E 117°47'0 0.0
2014-Nov-17 08:29N 39°00' E 117°47'0 0.0
2014-Nov-17 07:29N 39°00' E 117°47'0 0.0
2014-Nov-17 05:29N 39°00' E 117°47'0 0.0
2014-Nov-17 04:29N 39°00' E 117°47'0 0.0
2014-Nov-17 03:29N 39°00' E 117°47'0 0.0
2014-Nov-17 02:29N 39°00' E 117°47'0 0.0
2014-Nov-17 01:33N 39°00' E 117°47'0 0.0
2014-Nov-17 00:33N 39°00' E 117°47'1 0.6
2014-Nov-16 23:33N 38°60' E 117°47'9 8.9
2014-Nov-16 22:33N 38°57' E 117°58'8 8.3
2014-Nov-16 21:34N 38°55' E 118°08'5 0.4
2014-Nov-16 09:06N 38°54' E 118°15'0 0.0
2014-Nov-16 08:31N 38°54' E 118°15'0 0.0
2014-Nov-15 08:12N 38°54' E 118°15'0 0.1
2014-Nov-15 05:30N 38°54' E 118°15'0 0.0
2014-Nov-15 03:18N 38°54' E 118°15'134 5.4
2014-Nov-14 02:17N 38°33' E 121°04'1111.6
2014-Nov-14 01:20N 38°31' E 121°18'1012.3
2014-Nov-14 00:33N 38°31' E 121°30'1111.0
2014-Nov-13 23:33N 38°36' E 121°43'1312.8
2014-Nov-13 22:33N 38°47' E 121°51'  
Track history (hours):
 
Tides and Currents Weather Stations Pressure Air Temp Water Temp Dewpoint Dewpoint Depression Visibility Wind Speed Wind Dir Waves Ship Positions

MSC Clorinda

Last reported at 2014-Nov-23 19:16 UTC. Time now 2014-Nov-24 08:23 UTC.
Position N 35°56' E 120°50'.

Length 366 m; draft 11.8 m.

Type: Ship (hazmat cat A). MMSI: 373233000.

Date/timePositionNaut miles runAvg speedWind from/ knotsBaromVisibWave heightAir tempDewpointWater temp
2014-Nov-23 19:16N 35°56' E 120°50'1318.7
2014-Nov-23 18:33N 35°58' E 120°34'1413.8
2014-Nov-23 17:33N 36°02' E 120°18'4 0.5
2014-Nov-23 08:18N 36°00' E 120°12'0 0.0
2014-Nov-23 06:06N 36°00' E 120°12'0 0.0
2014-Nov-23 01:12N 36°00' E 120°12'0 0.0
2014-Nov-22 23:12N 36°00' E 120°12'1 1.0
2014-Nov-22 22:33N 36°01' E 120°13'10 9.9
2014-Nov-22 21:33N 36°01' E 120°25'1212.3
2014-Nov-22 20:33N 35°58' E 120°40'  
2014-Nov-18 18:31N 37°60' E 122°29'5012.0
2014-Nov-18 14:21N 38°20' E 121°31'16312.3
2014-Nov-18 01:07N 38°54' E 118°07'712.1
2014-Nov-18 00:32N 38°57' E 117°58'9 9.7
2014-Nov-17 23:33N 39°00' E 117°47'0 0.3
2014-Nov-17 22:29N 39°00' E 117°47'0 0.0
2014-Nov-17 21:29N 39°00' E 117°47'0 0.0
2014-Nov-17 20:29N 39°00' E 117°47'0 0.0
2014-Nov-17 19:29N 39°00' E 117°47'0 0.0
2014-Nov-17 18:29N 39°00' E 117°47'0 0.0
2014-Nov-17 17:29N 39°00' E 117°47'0 0.0
2014-Nov-17 16:29N 39°00' E 117°47'0 0.0
2014-Nov-17 15:29N 39°00' E 117°47'0 0.0
2014-Nov-17 14:29N 39°00' E 117°47'0 0.0
2014-Nov-17 13:29N 39°00' E 117°47'0 0.0
2014-Nov-17 12:29N 39°00' E 117°47'0 0.0
2014-Nov-17 11:29N 39°00' E 117°47'0 0.0
2014-Nov-17 10:29N 39°00' E 117°47'0 0.0
2014-Nov-17 09:29N 39°00' E 117°47'0 0.0
2014-Nov-17 08:29N 39°00' E 117°47'0 0.0
2014-Nov-17 07:29N 39°00' E 117°47'0 0.0
2014-Nov-17 05:29N 39°00' E 117°47'0 0.0
2014-Nov-17 04:29N 39°00' E 117°47'0 0.0
2014-Nov-17 03:29N 39°00' E 117°47'0 0.0
2014-Nov-17 02:29N 39°00' E 117°47'0 0.0
2014-Nov-17 01:33N 39°00' E 117°47'0 0.0
2014-Nov-17 00:33N 39°00' E 117°47'1 0.6
2014-Nov-16 23:33N 38°60' E 117°47'9 8.9
2014-Nov-16 22:33N 38°57' E 117°58'8 8.3
2014-Nov-16 21:34N 38°55' E 118°08'5 0.4
2014-Nov-16 09:06N 38°54' E 118°15'0 0.0
2014-Nov-16 08:31N 38°54' E 118°15'0 0.0
2014-Nov-15 08:12N 38°54' E 118°15'0 0.1
2014-Nov-15 05:30N 38°54' E 118°15'0 0.0
2014-Nov-15 03:18N 38°54' E 118°15'134 5.4
2014-Nov-14 02:17N 38°33' E 121°04'1111.6
2014-Nov-14 01:20N 38°31' E 121°18'1012.3
2014-Nov-14 00:33N 38°31' E 121°30'1111.0
2014-Nov-13 23:33N 38°36' E 121°43'1312.8
2014-Nov-13 22:33N 38°47' E 121°51'  

Dump ship's entire track history